sensor_id;sensor_type;location;lat;lon;timestamp;pressure;altitude;pressure_sealevel;temperature;humidity
25350;BME280;13302;48.796;11.978;2022-12-07T00:01:49;96713.75;;;7.53;36.06
25350;BME280;13302;48.796;11.978;2022-12-07T00:04:36;96708.25;;;7.53;36.14
25350;BME280;13302;48.796;11.978;2022-12-07T00:07:23;96716.00;;;7.51;35.88
25350;BME280;13302;48.796;11.978;2022-12-07T00:10:13;96707.75;;;7.51;36.19
25350;BME280;13302;48.796;11.978;2022-12-07T00:13:00;96716.50;;;7.53;36.04
25350;BME280;13302;48.796;11.978;2022-12-07T00:15:47;96712.59;;;7.54;36.18
25350;BME280;13302;48.796;11.978;2022-12-07T00:18:36;96714.19;;;7.55;36.11
25350;BME280;13302;48.796;11.978;2022-12-07T00:21:26;96715.00;;;7.55;36.29
25350;BME280;13302;48.796;11.978;2022-12-07T00:24:13;96715.50;;;7.57;35.93
25350;BME280;13302;48.796;11.978;2022-12-07T00:27:00;96708.84;;;7.58;35.86
25350;BME280;13302;48.796;11.978;2022-12-07T00:29:47;96707.25;;;7.57;35.89
25350;BME280;13302;48.796;11.978;2022-12-07T00:32:34;96705.63;;;7.56;35.89
25350;BME280;13302;48.796;11.978;2022-12-07T00:35:21;96705.13;;;7.54;35.88
25350;BME280;13302;48.796;11.978;2022-12-07T00:38:08;96695.28;;;7.53;36.30
25350;BME280;13302;48.796;11.978;2022-12-07T00:41:00;96699.97;;;7.53;36.07
25350;BME280;13302;48.796;11.978;2022-12-07T00:43:49;96703.19;;;7.55;35.91
25350;BME280;13302;48.796;11.978;2022-12-07T00:46:36;96697.69;;;7.55;35.87
25350;BME280;13302;48.796;11.978;2022-12-07T00:49:23;96702.06;;;7.56;35.95
25350;BME280;13302;48.796;11.978;2022-12-07T00:52:10;96702.38;;;7.54;36.05
25350;BME280;13302;48.796;11.978;2022-12-07T00:54:57;96697.69;;;7.55;36.03
25350;BME280;13302;48.796;11.978;2022-12-07T00:57:44;96695.75;;;7.55;36.11
25350;BME280;13302;48.796;11.978;2022-12-07T01:00:31;96702.38;;;7.54;36.01
25350;BME280;13302;48.796;11.978;2022-12-07T01:03:18;96700.78;;;7.53;36.09
25350;BME280;13302;48.796;11.978;2022-12-07T01:06:05;96703.53;;;7.53;36.16
25350;BME280;13302;48.796;11.978;2022-12-07T01:08:52;96707.44;;;7.52;35.92
25350;BME280;13302;48.796;11.978;2022-12-07T01:11:39;96711.00;;;7.53;35.83
25350;BME280;13302;48.796;11.978;2022-12-07T01:14:26;96713.75;;;7.53;36.02
25350;BME280;13302;48.796;11.978;2022-12-07T01:17:13;96714.53;;;7.53;35.99
25350;BME280;13302;48.796;11.978;2022-12-07T01:20:02;96713.38;;;7.54;35.99
25350;BME280;13302;48.796;11.978;2022-12-07T01:22:50;96720.84;;;7.54;36.02
25350;BME280;13302;48.796;11.978;2022-12-07T01:25:37;96711.78;;;7.53;35.78
25350;BME280;13302;48.796;11.978;2022-12-07T01:28:24;96710.19;;;7.52;35.79
25350;BME280;13302;48.796;11.978;2022-12-07T01:31:23;96719.56;;;7.51;35.93
25350;BME280;13302;48.796;11.978;2022-12-07T01:34:10;96713.75;;;7.53;35.95
25350;BME280;13302;48.796;11.978;2022-12-07T01:36:57;96717.31;;;7.53;35.80
25350;BME280;13302;48.796;11.978;2022-12-07T01:39:44;96707.44;;;7.52;35.93
25350;BME280;13302;48.796;11.978;2022-12-07T01:42:34;96714.06;;;7.51;35.67
25350;BME280;13302;48.796;11.978;2022-12-07T01:45:38;96707.28;;;7.49;35.66
25350;BME280;13302;48.796;11.978;2022-12-07T01:48:31;96708.91;;;7.50;35.86
25350;BME280;13302;48.796;11.978;2022-12-07T01:51:19;96708.09;;;7.49;35.65
25350;BME280;13302;48.796;11.978;2022-12-07T01:54:07;96699.03;;;7.49;35.92
25350;BME280;13302;48.796;11.978;2022-12-07T01:56:55;96701.78;;;7.49;35.66
25350;BME280;13302;48.796;11.978;2022-12-07T01:59:45;96700.19;;;7.48;35.73
25350;BME280;13302;48.796;11.978;2022-12-07T02:02:35;96703.75;;;7.48;35.82
25350;BME280;13302;48.796;11.978;2022-12-07T02:05:24;96694.34;;;7.49;35.72
25350;BME280;13302;48.796;11.978;2022-12-07T02:08:12;96700.66;;;7.50;35.60
25350;BME280;13302;48.796;11.978;2022-12-07T02:11:01;96696.44;;;7.52;35.60
25350;BME280;13302;48.796;11.978;2022-12-07T02:13:48;96697.91;;;7.50;35.34
25350;BME280;13302;48.796;11.978;2022-12-07T02:25:55;96692.25;;;7.46;35.60
25350;BME280;13302;48.796;11.978;2022-12-07T02:31:44;96698.09;;;7.45;35.49
25350;BME280;13302;48.796;11.978;2022-12-07T02:34:58;96690.66;;;7.45;35.58
25350;BME280;13302;48.796;11.978;2022-12-07T02:40:59;96696.16;;;7.45;35.72
25350;BME280;13302;48.796;11.978;2022-12-07T02:43:54;96698.91;;;7.45;35.52
25350;BME280;13302;48.796;11.978;2022-12-07T02:46:48;96692.59;;;7.45;35.50
25350;BME280;13302;48.796;11.978;2022-12-07T02:49:38;96693.88;;;7.47;35.46
25350;BME280;13302;48.796;11.978;2022-12-07T02:52:25;96692.25;;;7.46;35.61
25350;BME280;13302;48.796;11.978;2022-12-07T02:55:15;96689.50;;;7.46;35.53
25350;BME280;13302;48.796;11.978;2022-12-07T02:58:40;96683.53;;;7.44;35.69
25350;BME280;13302;48.796;11.978;2022-12-07T03:07:48;96688.25;;;7.44;35.53
25350;BME280;13302;48.796;11.978;2022-12-07T03:16:52;96682.94;;;7.38;35.76
25350;BME280;13302;48.796;11.978;2022-12-07T03:19:43;96679.72;;;7.36;35.71
25350;BME280;13302;48.796;11.978;2022-12-07T03:22:34;96673.41;;;7.36;35.83
25350;BME280;13302;48.796;11.978;2022-12-07T03:25:22;96679.38;;;7.38;35.73
25350;BME280;13302;48.796;11.978;2022-12-07T03:28:09;96671.13;;;7.38;35.55
25350;BME280;13302;48.796;11.978;2022-12-07T03:31:05;96682.47;;;7.36;35.56
25350;BME280;13302;48.796;11.978;2022-12-07T03:34:15;96684.41;;;7.36;35.60
25350;BME280;13302;48.796;11.978;2022-12-07T03:37:08;96672.28;;;7.37;35.82
25350;BME280;13302;48.796;11.978;2022-12-07T03:40:11;96677.78;;;7.37;35.51
25350;BME280;13302;48.796;11.978;2022-12-07T03:43:00;96668.03;;;7.40;35.68
25350;BME280;13302;48.796;11.978;2022-12-07T03:52:16;96667.59;;;7.38;35.86
25350;BME280;13302;48.796;11.978;2022-12-07T03:55:22;96668.38;;;7.38;35.83
25350;BME280;13302;48.796;11.978;2022-12-07T03:58:16;96673.09;;;7.38;35.58
25350;BME280;13302;48.796;11.978;2022-12-07T04:01:04;96679.03;;;7.40;35.68
25350;BME280;13302;48.796;11.978;2022-12-07T04:03:51;96678.25;;;7.39;35.62
25350;BME280;13302;48.796;11.978;2022-12-07T04:06:38;96676.28;;;7.40;35.64
25350;BME280;13302;48.796;11.978;2022-12-07T04:09:25;96681.00;;;7.39;35.85
25350;BME280;13302;48.796;11.978;2022-12-07T04:12:12;96669.19;;;7.38;35.63
25350;BME280;13302;48.796;11.978;2022-12-07T04:14:59;96664.84;;;7.38;35.76
25350;BME280;13302;48.796;11.978;2022-12-07T04:17:46;96662.09;;;7.38;35.55
25350;BME280;13302;48.796;11.978;2022-12-07T04:20:33;96667.91;;;7.36;35.84
25350;BME280;13302;48.796;11.978;2022-12-07T04:23:20;96665.16;;;7.36;35.78
25350;BME280;13302;48.796;11.978;2022-12-07T04:26:07;96666.28;;;7.35;35.90
25350;BME280;13302;48.796;11.978;2022-12-07T04:28:54;96670.97;;;7.34;35.86
25350;BME280;13302;48.796;11.978;2022-12-07T04:31:41;96674.53;;;7.35;35.79
25350;BME280;13302;48.796;11.978;2022-12-07T04:34:28;96664.34;;;7.35;35.83
25350;BME280;13302;48.796;11.978;2022-12-07T04:37:16;96664.03;;;7.37;35.69
25350;BME280;13302;48.796;11.978;2022-12-07T04:40:05;96672.28;;;7.37;35.76
25350;BME280;13302;48.796;11.978;2022-12-07T04:42:52;96666.78;;;7.37;35.76
25350;BME280;13302;48.796;11.978;2022-12-07T04:45:39;96662.41;;;7.36;35.75
25350;BME280;13302;48.796;11.978;2022-12-07T04:48:26;96665.16;;;7.36;35.75
25350;BME280;13302;48.796;11.978;2022-12-07T04:51:15;96661.91;;;7.34;35.91
25350;BME280;13302;48.796;11.978;2022-12-07T04:54:04;96666.94;;;7.32;35.75
25350;BME280;13302;48.796;11.978;2022-12-07T04:56:51;96657.06;;;7.31;35.71
25350;BME280;13302;48.796;11.978;2022-12-07T04:59:38;96639.78;;;7.30;35.74
25350;BME280;13302;48.796;11.978;2022-12-07T05:02:31;96633.81;;;7.28;35.51
25350;BME280;13302;48.796;11.978;2022-12-07T05:05:18;96649.81;;;7.26;35.65
25350;BME280;13302;48.796;11.978;2022-12-07T05:08:05;96659.56;;;7.24;35.59
25350;BME280;13302;48.796;11.978;2022-12-07T05:10:52;96651.31;;;7.24;35.72
25350;BME280;13302;48.796;11.978;2022-12-07T05:13:39;96655.69;;;7.25;35.68
25350;BME280;13302;48.796;11.978;2022-12-07T05:16:27;96659.56;;;7.24;35.61
25350;BME280;13302;48.796;11.978;2022-12-07T05:19:14;96649.69;;;7.23;35.65
25350;BME280;13302;48.796;11.978;2022-12-07T05:22:02;96648.88;;;7.22;35.39
25350;BME280;13302;48.796;11.978;2022-12-07T05:24:49;96656.31;;;7.22;35.53
25350;BME280;13302;48.796;11.978;2022-12-07T05:27:35;96656.69;;;7.20;35.59
25350;BME280;13302;48.796;11.978;2022-12-07T05:30:23;96652.00;;;7.21;35.29
25350;BME280;13302;48.796;11.978;2022-12-07T05:33:11;96645.69;;;7.20;35.42
25350;BME280;13302;48.796;11.978;2022-12-07T05:35:58;96652.00;;;7.21;35.49
25350;BME280;13302;48.796;11.978;2022-12-07T05:38:45;96647.63;;;7.20;35.30
25350;BME280;13302;48.796;11.978;2022-12-07T05:41:32;96660.25;;;7.21;35.39
25350;BME280;13302;48.796;11.978;2022-12-07T05:44:42;96653.13;;;7.20;35.24
25350;BME280;13302;48.796;11.978;2022-12-07T05:47:30;96644.53;;;7.21;35.19
25350;BME280;13302;48.796;11.978;2022-12-07T05:50:17;96643.75;;;7.21;35.20
25350;BME280;13302;48.796;11.978;2022-12-07T05:53:19;96641.44;;;7.23;35.10
25350;BME280;13302;48.796;11.978;2022-12-07T05:56:09;96640.63;;;7.22;35.08
25350;BME280;13302;48.796;11.978;2022-12-07T05:58:56;96637.88;;;7.22;35.06
25350;BME280;13302;48.796;11.978;2022-12-07T06:02:07;96642.13;;;7.20;35.06
25350;BME280;13302;48.796;11.978;2022-12-07T06:04:55;96632.75;;;7.21;34.99
25350;BME280;13302;48.796;11.978;2022-12-07T06:07:42;96625.63;;;7.20;34.79
25350;BME280;13302;48.796;11.978;2022-12-07T06:10:29;96628.69;;;7.18;34.94
25350;BME280;13302;48.796;11.978;2022-12-07T06:13:16;96622.75;;;7.16;35.00
25350;BME280;13302;48.796;11.978;2022-12-07T06:16:03;96631.31;;;7.15;34.89
25350;BME280;13302;48.796;11.978;2022-12-07T06:18:50;96639.44;;;7.11;34.90
25350;BME280;13302;48.796;11.978;2022-12-07T06:21:37;96632.66;;;7.09;34.85
25350;BME280;13302;48.796;11.978;2022-12-07T06:24:24;96640.44;;;7.07;34.97
25350;BME280;13302;48.796;11.978;2022-12-07T06:27:12;96645.78;;;7.03;34.98
25350;BME280;13302;48.796;11.978;2022-12-07T06:29:59;96653.91;;;7.00;34.94
25350;BME280;13302;48.796;11.978;2022-12-07T06:32:47;96643.59;;;6.97;34.93
25350;BME280;13302;48.796;11.978;2022-12-07T06:35:33;96651.66;;;6.93;35.02
25350;BME280;13302;48.796;11.978;2022-12-07T06:38:21;96654.28;;;6.89;35.04
25350;BME280;13302;48.796;11.978;2022-12-07T06:41:08;96659.94;;;6.84;35.02
25350;BME280;13302;48.796;11.978;2022-12-07T06:43:55;96661.13;;;6.83;34.85
25350;BME280;13302;48.796;11.978;2022-12-07T06:46:42;96660.97;;;6.80;34.96
25350;BME280;13302;48.796;11.978;2022-12-07T06:49:29;96667.91;;;6.77;35.06
25350;BME280;13302;48.796;11.978;2022-12-07T06:52:16;96661.97;;;6.75;35.05
25350;BME280;13302;48.796;11.978;2022-12-07T06:55:03;96670.53;;;6.74;35.07
25350;BME280;13302;48.796;11.978;2022-12-07T06:57:50;96666.50;;;6.71;35.09
25350;BME280;13302;48.796;11.978;2022-12-07T07:00:37;96670.38;;;6.70;35.34
25350;BME280;13302;48.796;11.978;2022-12-07T07:03:24;96677.81;;;6.70;35.05
25350;BME280;13302;48.796;11.978;2022-12-07T07:06:12;96683.97;;;6.67;35.14
25350;BME280;13302;48.796;11.978;2022-12-07T07:09:00;96678.00;;;6.65;35.08
25350;BME280;13302;48.796;11.978;2022-12-07T07:11:47;96682.69;;;6.64;35.02
25350;BME280;13302;48.796;11.978;2022-12-07T07:14:34;96683.50;;;6.65;35.11
25350;BME280;13302;48.796;11.978;2022-12-07T07:17:21;96682.69;;;6.64;35.21
25350;BME280;13302;48.796;11.978;2022-12-07T07:20:09;96689.78;;;6.65;35.28
25350;BME280;13302;48.796;11.978;2022-12-07T07:22:56;96685.41;;;6.64;35.38
25350;BME280;13302;48.796;11.978;2022-12-07T07:25:44;96696.41;;;6.64;35.15
25350;BME280;13302;48.796;11.978;2022-12-07T07:28:31;96690.13;;;6.64;35.12
25350;BME280;13302;48.796;11.978;2022-12-07T07:31:18;96686.59;;;6.63;35.23
25350;BME280;13302;48.796;11.978;2022-12-07T07:34:05;96692.88;;;6.64;35.38
25350;BME280;13302;48.796;11.978;2022-12-07T07:36:52;96684.66;;;6.64;35.49
25350;BME280;13302;48.796;11.978;2022-12-07T07:39:39;96697.56;;;6.63;35.58
25350;BME280;13302;48.796;11.978;2022-12-07T07:42:26;96699.97;;;6.65;35.57
25350;BME280;13302;48.796;11.978;2022-12-07T07:45:13;96702.41;;;6.66;35.48
25350;BME280;13302;48.796;11.978;2022-12-07T07:48:00;96705.94;;;6.67;35.36
25350;BME280;13302;48.796;11.978;2022-12-07T07:50:47;96702.41;;;6.66;35.45
25350;BME280;13302;48.796;11.978;2022-12-07T07:53:34;96703.66;;;6.69;35.51
25350;BME280;13302;48.796;11.978;2022-12-07T07:56:21;96707.22;;;6.69;35.43
25350;BME280;13302;48.796;11.978;2022-12-07T07:59:08;96702.22;;;6.71;35.52
25350;BME280;13302;48.796;11.978;2022-12-07T08:01:55;96700.44;;;6.75;35.54
25350;BME280;13302;48.796;11.978;2022-12-07T08:04:42;96697.81;;;6.79;35.69
25350;BME280;13302;48.796;11.978;2022-12-07T08:07:29;96699.91;;;6.82;35.44
25350;BME280;13302;48.796;11.978;2022-12-07T08:10:16;96706.19;;;6.82;35.43
25350;BME280;13302;48.796;11.978;2022-12-07T08:13:03;96701.16;;;6.84;35.39
25350;BME280;13302;48.796;11.978;2022-12-07T08:16:07;96715.72;;;6.85;35.32
25350;BME280;13302;48.796;11.978;2022-12-07T08:18:55;96703.28;;;6.87;35.29
25350;BME280;13302;48.796;11.978;2022-12-07T08:21:42;96707.28;;;6.90;35.33
25350;BME280;13302;48.796;11.978;2022-12-07T08:24:29;96710.03;;;6.90;35.23
25350;BME280;13302;48.796;11.978;2022-12-07T08:27:16;96707.78;;;6.92;35.23
25350;BME280;13302;48.796;11.978;2022-12-07T08:30:04;96713.28;;;6.92;35.19
25350;BME280;13302;48.796;11.978;2022-12-07T08:32:52;96707.78;;;6.92;35.23
25350;BME280;13302;48.796;11.978;2022-12-07T08:35:39;96713.59;;;6.90;35.25
25350;BME280;13302;48.796;11.978;2022-12-07T08:38:26;96714.41;;;6.91;35.14
25350;BME280;13302;48.796;11.978;2022-12-07T08:41:18;96716.03;;;6.92;35.04
25350;BME280;13302;48.796;11.978;2022-12-07T08:44:05;96706.97;;;6.91;34.95
25350;BME280;13302;48.796;11.978;2022-12-07T08:46:56;96718.28;;;6.90;35.20
25350;BME280;13302;48.796;11.978;2022-12-07T08:49:46;96713.59;;;6.90;35.11
25350;BME280;13302;48.796;11.978;2022-12-07T08:52:36;96714.41;;;6.91;35.04
25350;BME280;13302;48.796;11.978;2022-12-07T08:55:24;96722.34;;;6.93;35.10
25350;BME280;13302;48.796;11.978;2022-12-07T08:58:12;96716.84;;;6.93;35.08
25350;BME280;13302;48.796;11.978;2022-12-07T09:00:59;96718.78;;;6.92;34.90
25350;BME280;13302;48.796;11.978;2022-12-07T09:03:46;96707.78;;;6.92;34.96
25350;BME280;13302;48.796;11.978;2022-12-07T09:06:33;96711.34;;;6.93;35.10
25350;BME280;13302;48.796;11.978;2022-12-07T09:09:21;96715.34;;;6.95;35.01
25350;BME280;13302;48.796;11.978;2022-12-07T09:12:08;96720.19;;;6.98;35.24
25350;BME280;13302;48.796;11.978;2022-12-07T09:14:56;96719.88;;;7.00;35.34
25350;BME280;13302;48.796;11.978;2022-12-07T09:17:43;96713.69;;;7.03;35.27
25350;BME280;13302;48.796;11.978;2022-12-07T09:20:30;96719.00;;;7.08;35.38
25350;BME280;13302;48.796;11.978;2022-12-07T09:23:17;96716.41;;;7.11;35.47
25350;BME280;13302;48.796;11.978;2022-12-07T09:26:04;96717.03;;;7.17;35.42
25350;BME280;13302;48.796;11.978;2022-12-07T09:28:56;96711.66;;;7.20;35.51
25350;BME280;13302;48.796;11.978;2022-12-07T09:31:43;96709.50;;;7.26;35.23
25350;BME280;13302;48.796;11.978;2022-12-07T09:34:31;96714.00;;;7.30;35.36
25350;BME280;13302;48.796;11.978;2022-12-07T09:37:19;96711.41;;;7.34;35.50
25350;BME280;13302;48.796;11.978;2022-12-07T09:40:06;96703.94;;;7.34;35.31
25350;BME280;13302;48.796;11.978;2022-12-07T09:42:54;96711.25;;;7.39;35.42
25350;BME280;13302;48.796;11.978;2022-12-07T09:45:43;96708.63;;;7.43;35.16
25350;BME280;13302;48.796;11.978;2022-12-07T09:48:36;96701.78;;;7.49;35.11
25350;BME280;13302;48.796;11.978;2022-12-07T09:51:25;96705.63;;;7.56;35.12
25350;BME280;13302;48.796;11.978;2022-12-07T09:54:14;96704.28;;;7.62;35.21
25350;BME280;13302;48.796;11.978;2022-12-07T09:57:02;96704.28;;;7.62;34.91
25350;BME280;13302;48.796;11.978;2022-12-07T09:59:49;96698.09;;;7.65;34.68
25350;BME280;13302;48.796;11.978;2022-12-07T10:02:38;96700.19;;;7.68;34.54
25350;BME280;13302;48.796;11.978;2022-12-07T10:05:34;96691.59;;;7.70;34.44
25350;BME280;13302;48.796;11.978;2022-12-07T10:08:24;96692.06;;;7.72;34.60
25350;BME280;13302;48.796;11.978;2022-12-07T10:11:11;96686.69;;;7.75;34.43
25350;BME280;13302;48.796;11.978;2022-12-07T10:14:11;96683.13;;;7.75;34.25
25350;BME280;13302;48.796;11.978;2022-12-07T10:16:59;96678.91;;;7.77;34.40
25350;BME280;13302;48.796;11.978;2022-12-07T10:19:46;96678.09;;;7.77;34.24
25350;BME280;13302;48.796;11.978;2022-12-07T10:22:33;96684.75;;;7.76;34.08
25350;BME280;13302;48.796;11.978;2022-12-07T10:25:21;96680.84;;;7.77;34.18
25350;BME280;13302;48.796;11.978;2022-12-07T10:31:01;96683.81;;;7.72;34.09
25350;BME280;13302;48.796;11.978;2022-12-07T10:33:53;96680.59;;;7.70;34.25
25350;BME280;13302;48.796;11.978;2022-12-07T10:36:40;96667.66;;;7.70;34.23
25350;BME280;13302;48.796;11.978;2022-12-07T10:39:27;96673.16;;;7.70;34.35
25350;BME280;13302;48.796;11.978;2022-12-07T10:42:25;96678.66;;;7.70;34.26
25350;BME280;13302;48.796;11.978;2022-12-07T10:45:17;96662.91;;;7.71;33.92
25350;BME280;13302;48.796;11.978;2022-12-07T10:51:26;96673.00;;;7.67;34.07
25350;BME280;13302;48.796;11.978;2022-12-07T10:54:39;96659.59;;;7.65;34.05
25350;BME280;13302;48.796;11.978;2022-12-07T10:57:49;96664.28;;;7.65;34.01
25350;BME280;13302;48.796;11.978;2022-12-07T11:07:20;96659.59;;;7.65;34.02
25350;BME280;13302;48.796;11.978;2022-12-07T11:13:18;96645.16;;;7.68;33.99
25350;BME280;13302;48.796;11.978;2022-12-07T11:22:26;96635.09;;;7.72;33.89
25350;BME280;13302;48.796;11.978;2022-12-07T11:25:32;96627.63;;;7.73;33.80
25350;BME280;13302;48.796;11.978;2022-12-07T11:32:20;96624.56;;;7.74;33.60
25350;BME280;13302;48.796;11.978;2022-12-07T11:38:13;96629.25;;;7.74;33.67
25350;BME280;13302;48.796;11.978;2022-12-07T11:41:04;96631.66;;;7.75;33.72
25350;BME280;13302;48.796;11.978;2022-12-07T11:44:08;96628.09;;;7.75;33.64
25350;BME280;13302;48.796;11.978;2022-12-07T11:47:35;96621.81;;;7.74;33.66
25350;BME280;13302;48.796;11.978;2022-12-07T11:50:30;96629.59;;;7.72;33.57
25350;BME280;13302;48.796;11.978;2022-12-07T11:53:29;96626.50;;;7.74;33.58
25350;BME280;13302;48.796;11.978;2022-12-07T11:56:25;96618.25;;;7.74;33.65
25350;BME280;13302;48.796;11.978;2022-12-07T11:59:20;96619.06;;;7.74;33.64
25350;BME280;13302;48.796;11.978;2022-12-07T12:02:21;96619.06;;;7.74;33.77
25350;BME280;13302;48.796;11.978;2022-12-07T12:05:17;96617.88;;;7.75;33.52
25350;BME280;13302;48.796;11.978;2022-12-07T12:08:15;96615.13;;;7.75;33.60
25350;BME280;13302;48.796;11.978;2022-12-07T12:11:48;96612.38;;;7.75;33.87
25350;BME280;13302;48.796;11.978;2022-12-07T12:21:26;96608.63;;;7.80;33.82
25350;BME280;13302;48.796;11.978;2022-12-07T12:24:22;96612.19;;;7.80;33.57
25350;BME280;13302;48.796;11.978;2022-12-07T12:27:20;96606.69;;;7.80;33.38
25350;BME280;13302;48.796;11.978;2022-12-07T12:33:28;96599.69;;;7.83;33.57
25350;BME280;13302;48.796;11.978;2022-12-07T12:39:18;96601.78;;;7.86;33.51
25350;BME280;13302;48.796;11.978;2022-12-07T12:42:18;96595.47;;;7.86;33.40
25350;BME280;13302;48.796;11.978;2022-12-07T12:45:21;96600.97;;;7.86;33.62
25350;BME280;13302;48.796;11.978;2022-12-07T12:48:28;96599.03;;;7.86;33.54
25350;BME280;13302;48.796;11.978;2022-12-07T12:51:37;96600.59;;;7.87;33.51
25350;BME280;13302;48.796;11.978;2022-12-07T12:54:26;96599.47;;;7.88;33.34
25350;BME280;13302;48.796;11.978;2022-12-07T12:57:25;96595.59;;;7.89;33.53
25350;BME280;13302;48.796;11.978;2022-12-07T13:00:23;96582.63;;;7.90;33.57
25350;BME280;13302;48.796;11.978;2022-12-07T13:03:26;96591.69;;;7.90;33.33
25350;BME280;13302;48.796;11.978;2022-12-07T13:06:17;96579.53;;;7.91;33.42
25350;BME280;13302;48.796;11.978;2022-12-07T13:09:18;96577.94;;;7.90;33.45
25350;BME280;13302;48.796;11.978;2022-12-07T13:12:14;96572.44;;;7.90;33.32
25350;BME280;13302;48.796;11.978;2022-12-07T13:15:02;96576.44;;;7.93;33.51
25350;BME280;13302;48.796;11.978;2022-12-07T13:20:46;96567.84;;;7.94;33.42
25350;BME280;13302;48.796;11.978;2022-12-07T13:23:37;96571.84;;;7.97;33.49
25350;BME280;13302;48.796;11.978;2022-12-07T13:29:20;96566.34;;;7.97;33.29
25350;BME280;13302;48.796;11.978;2022-12-07T13:32:26;96564.41;;;7.97;33.28
25350;BME280;13302;48.796;11.978;2022-12-07T13:35:29;96566.84;;;7.99;33.56
25350;BME280;13302;48.796;11.978;2022-12-07T13:38:36;96568.41;;;8.00;33.35
25350;BME280;13302;48.796;11.978;2022-12-07T13:41:28;96568.88;;;8.02;33.54
25350;BME280;13302;48.796;11.978;2022-12-07T13:44:16;96566.59;;;8.04;33.35
25350;BME280;13302;48.796;11.978;2022-12-07T13:47:14;96564.63;;;8.04;33.39
25350;BME280;13302;48.796;11.978;2022-12-07T13:50:23;96565.44;;;8.05;33.48
25350;BME280;13302;48.796;11.978;2022-12-07T13:53:13;96564.31;;;8.06;33.23
25350;BME280;13302;48.796;11.978;2022-12-07T13:56:01;96559.25;;;8.08;33.22
25350;BME280;13302;48.796;11.978;2022-12-07T13:58:48;96553.75;;;8.08;33.49
25350;BME280;13302;48.796;11.978;2022-12-07T14:01:35;96562.47;;;8.10;33.28
25350;BME280;13302;48.796;11.978;2022-12-07T14:07:25;96555.34;;;8.09;33.26
25350;BME280;13302;48.796;11.978;2022-12-07T14:10:32;96556.50;;;8.08;33.37
25350;BME280;13302;48.796;11.978;2022-12-07T14:13:38;96552.97;;;8.07;33.25
25350;BME280;13302;48.796;11.978;2022-12-07T14:16:36;96556.50;;;8.08;33.37
25350;BME280;13302;48.796;11.978;2022-12-07T14:19:42;96555.34;;;8.09;33.44
25350;BME280;13302;48.796;11.978;2022-12-07T14:22:37;96553.75;;;8.08;33.32
25350;BME280;13302;48.796;11.978;2022-12-07T14:25:27;96552.97;;;8.07;33.25
25350;BME280;13302;48.796;11.978;2022-12-07T14:28:32;96556.50;;;8.08;33.15
25350;BME280;13302;48.796;11.978;2022-12-07T14:31:24;96555.72;;;8.07;33.05
25350;BME280;13302;48.796;11.978;2022-12-07T14:34:16;96555.34;;;8.09;33.26
25350;BME280;13302;48.796;11.978;2022-12-07T14:37:04;96551.00;;;8.08;33.12
25350;BME280;13302;48.796;11.978;2022-12-07T14:39:54;96547.09;;;8.09;33.26
25350;BME280;13302;48.796;11.978;2022-12-07T14:42:41;96557.78;;;8.10;33.22
25350;BME280;13302;48.796;11.978;2022-12-07T14:45:29;96557.78;;;8.10;33.15
25350;BME280;13302;48.796;11.978;2022-12-07T14:48:16;96554.22;;;8.10;33.31
25350;BME280;13302;48.796;11.978;2022-12-07T14:51:23;96545.97;;;8.10;33.35
25350;BME280;13302;48.796;11.978;2022-12-07T14:54:31;96548.25;;;8.08;33.03
25350;BME280;13302;48.796;11.978;2022-12-07T14:57:19;96547.47;;;8.07;33.10
25350;BME280;13302;48.796;11.978;2022-12-07T15:00:07;96543.09;;;8.06;33.29
25350;BME280;13302;48.796;11.978;2022-12-07T15:02:55;96541.47;;;8.05;33.20
25350;BME280;13302;48.796;11.978;2022-12-07T15:05:42;96541.47;;;8.05;33.06
25350;BME280;13302;48.796;11.978;2022-12-07T15:08:29;96539.88;;;8.04;33.34
25350;BME280;13302;48.796;11.978;2022-12-07T15:11:17;96541.81;;;8.04;33.04
25350;BME280;13302;48.796;11.978;2022-12-07T15:14:04;96539.88;;;8.04;33.37
25350;BME280;13302;48.796;11.978;2022-12-07T15:16:54;96534.72;;;8.03;33.07
25350;BME280;13302;48.796;11.978;2022-12-07T15:20:02;96541.03;;;8.03;33.09
25350;BME280;13302;48.796;11.978;2022-12-07T15:22:50;96544.91;;;8.02;32.99
25350;BME280;13302;48.796;11.978;2022-12-07T15:25:40;96547.19;;;8.00;33.10
25350;BME280;13302;48.796;11.978;2022-12-07T15:28:27;96546.38;;;8.00;33.19
25350;BME280;13302;48.796;11.978;2022-12-07T15:31:16;96534.59;;;7.99;33.29
25350;BME280;13302;48.796;11.978;2022-12-07T15:34:27;96530.25;;;7.98;33.10
25350;BME280;13302;48.796;11.978;2022-12-07T15:37:23;96536.56;;;7.99;33.03
25350;BME280;13302;48.796;11.978;2022-12-07T15:40:11;96529.09;;;7.99;33.02
25350;BME280;13302;48.796;11.978;2022-12-07T15:42:58;96534.94;;;7.98;33.17
25350;BME280;13302;48.796;11.978;2022-12-07T15:45:49;96538.81;;;7.97;32.98
25350;BME280;13302;48.796;11.978;2022-12-07T15:48:36;96527.50;;;7.98;33.19
25350;BME280;13302;48.796;11.978;2022-12-07T15:51:23;96530.25;;;7.98;33.12
25350;BME280;13302;48.796;11.978;2022-12-07T15:54:19;96529.75;;;7.96;32.95
25350;BME280;13302;48.796;11.978;2022-12-07T15:57:06;96525.88;;;7.97;33.16
25350;BME280;13302;48.796;11.978;2022-12-07T15:59:53;96522.31;;;7.97;33.10
25350;BME280;13302;48.796;11.978;2022-12-07T16:02:40;96523.44;;;7.96;33.03
25350;BME280;13302;48.796;11.978;2022-12-07T16:05:27;96525.75;;;7.94;33.11
25350;BME280;13302;48.796;11.978;2022-12-07T16:08:14;96519.13;;;7.95;32.85
25350;BME280;13302;48.796;11.978;2022-12-07T16:11:07;96526.91;;;7.93;33.15
25350;BME280;13302;48.796;11.978;2022-12-07T16:13:54;96520.25;;;7.94;32.86
25350;BME280;13302;48.796;11.978;2022-12-07T16:16:41;96522.19;;;7.93;33.02
25350;BME280;13302;48.796;11.978;2022-12-07T16:19:29;96522.19;;;7.93;32.92
25350;BME280;13302;48.796;11.978;2022-12-07T16:22:16;96521.75;;;7.91;32.98
25350;BME280;13302;48.796;11.978;2022-12-07T16:25:03;96523.69;;;7.91;33.05
25350;BME280;13302;48.796;11.978;2022-12-07T16:27:52;96518.19;;;7.91;32.92
25350;BME280;13302;48.796;11.978;2022-12-07T16:30:39;96521.28;;;7.89;32.84